createdAt,value
2023-03-23T16:00:07.555Z,79.40
2023-03-23T16:05:14.140Z,79.70
2023-03-23T16:10:19.877Z,79.10
2023-03-23T16:15:23.499Z,79.60
2023-03-23T16:20:32.385Z,79.50
2023-03-23T16:25:35.857Z,79.50
2023-03-23T16:30:39.537Z,79.70
2023-03-23T16:35:44.817Z,79.60
2023-03-23T16:40:48.944Z,79.70
2023-03-23T16:45:56.823Z,79.50
2023-03-23T16:51:01.763Z,79.50
2023-03-23T16:56:06.118Z,79.60
2023-03-23T17:01:09.836Z,79.70
2023-03-23T17:06:14.704Z,79.50
2023-03-23T17:11:18.248Z,79.60
2023-03-23T17:16:21.813Z,79.50
2023-03-23T17:21:27.236Z,78.90
2023-03-23T17:26:30.778Z,79.50
2023-03-23T17:31:34.409Z,79.70
2023-03-23T17:36:39.326Z,79.70
2023-03-23T17:41:42.837Z,79.60
2023-03-23T17:46:46.422Z,79.60
2023-03-23T17:51:51.352Z,79.70
2023-03-23T17:56:55.180Z,79.50
2023-03-23T18:01:58.806Z,79.40
2023-03-23T18:07:03.797Z,79.60
2023-03-23T18:12:07.708Z,79.90
2023-03-23T18:17:11.328Z,79.80
2023-03-23T18:22:16.383Z,79.60
2023-03-23T18:27:20.210Z,79.70
2023-03-23T18:32:23.704Z,79.80
2023-03-23T18:37:28.597Z,79.90
2023-03-23T18:42:32.056Z,79.70
2023-03-23T18:47:37.821Z,79.60
2023-03-23T18:52:42.729Z,79.70
2023-03-23T18:57:46.239Z,79.60
2023-03-23T19:02:52.184Z,79.90
2023-03-23T19:07:58.217Z,79.90
2023-03-23T19:13:01.664Z,79.60
2023-03-23T19:18:05.434Z,79.60
2023-03-23T19:23:10.369Z,79.60
2023-03-23T19:29:03.323Z,79.80
2023-03-23T19:33:37.455Z,79.80
2023-03-23T19:38:42.368Z,79.80
2023-03-23T19:43:45.781Z,79.90
2023-03-23T19:48:49.210Z,79.90
2023-03-23T19:53:54.020Z,80.00
2023-03-23T19:58:57.484Z,80.10
2023-03-23T20:04:04.957Z,80.00
2023-03-23T20:09:09.857Z,80.10
2023-03-23T20:14:13.224Z,80.10
2023-03-23T20:19:16.622Z,80.00
2023-03-23T20:24:21.461Z,80.00
2023-03-23T20:29:24.819Z,80.20
2023-03-23T20:34:31.612Z,80.10
2023-03-23T20:39:36.741Z,80.20
2023-03-23T20:44:41.740Z,80.20
2023-03-23T20:49:52.972Z,80.20
2023-03-23T20:54:58.512Z,80.30
2023-03-23T21:00:04.008Z,80.20
2023-03-23T21:05:07.845Z,80.30
2023-03-23T21:10:12.621Z,80.40
2023-03-23T21:15:16.015Z,80.30
2023-03-23T21:20:19.426Z,80.40
2023-03-23T21:25:33.997Z,80.50
2023-03-23T21:30:41.950Z,80.30
2023-03-23T21:35:45.402Z,80.20
2023-03-23T21:40:50.172Z,80.20
2023-03-23T21:45:56.046Z,80.30
2023-03-23T21:51:06.971Z,80.30
2023-03-23T21:56:12.574Z,80.40
2023-03-23T22:01:16.447Z,80.40
2023-03-23T22:06:23.568Z,80.50
2023-03-23T22:11:31.335Z,80.60
2023-03-23T22:16:35.096Z,80.50
2023-03-23T22:21:39.366Z,80.60
2023-03-23T22:26:44.140Z,80.50
2023-03-23T22:31:47.823Z,80.70
2023-03-23T22:36:51.785Z,80.50
2023-03-23T22:41:56.790Z,80.70
2023-03-23T22:47:00.316Z,80.60
2023-03-23T22:52:03.848Z,80.90
2023-03-23T22:57:08.718Z,80.80
2023-03-23T23:02:12.316Z,80.80
2023-03-23T23:07:15.794Z,80.50
2023-03-23T23:12:21.929Z,80.60
2023-03-23T23:17:25.492Z,80.70
2023-03-23T23:22:28.982Z,80.90
2023-03-23T23:27:33.879Z,80.60
2023-03-23T23:32:37.546Z,80.20
2023-03-23T23:37:41.167Z,80.70
2023-03-23T23:42:47.517Z,81.00
2023-03-23T23:47:51.524Z,81.10
2023-03-23T23:52:55.300Z,81.20
2023-03-23T23:58:00.209Z,81.30
